createdAt,value
2023-04-29T00:01:16.540Z,27.02
2023-04-29T00:03:44.338Z,27.25
2023-04-29T00:06:11.774Z,27.42
2023-04-29T00:08:38.562Z,26.15
2023-04-29T00:11:05.347Z,25.45
2023-04-29T00:13:31.869Z,26.63
2023-04-29T00:15:58.520Z,26.50
2023-04-29T00:18:25.056Z,25.48
2023-04-29T00:20:51.709Z,26.73
2023-04-29T00:23:18.216Z,25.98
2023-04-29T00:25:44.756Z,27.42
2023-04-29T00:28:11.288Z,26.88
2023-04-29T00:30:37.795Z,27.92
2023-04-29T00:33:04.546Z,26.50
2023-04-29T00:35:31.846Z,28.42
2023-04-29T00:37:58.370Z,27.00
2023-04-29T00:40:24.931Z,28.13
2023-04-29T00:42:51.884Z,28.13
2023-04-29T00:45:18.470Z,27.23
2023-04-29T00:47:45.148Z,27.42
2023-04-29T00:50:11.879Z,28.08
2023-04-29T00:52:39.597Z,27.95
2023-04-29T00:55:08.914Z,29.00
2023-04-29T00:57:35.737Z,29.60
2023-04-29T01:00:02.793Z,28.13
2023-04-29T01:02:30.144Z,29.13
2023-04-29T01:04:57.619Z,29.45
2023-04-29T01:07:34.084Z,29.20
2023-04-29T01:10:09.574Z,28.77
2023-04-29T01:12:36.320Z,28.50
2023-04-29T01:15:10.091Z,29.17
2023-04-29T01:17:41.385Z,28.17
2023-04-29T01:20:10.326Z,28.80
2023-04-29T01:22:37.641Z,28.65
2023-04-29T01:25:05.897Z,28.90
2023-04-29T01:27:47.994Z,28.08
2023-04-29T01:30:32.942Z,28.15
2023-04-29T01:39:31.667Z,31.00
2023-04-29T01:42:06.254Z,33.60
2023-04-29T01:44:34.043Z,33.78
2023-04-29T01:47:01.324Z,36.22
2023-04-29T01:49:28.757Z,37.00
2023-04-29T01:51:55.885Z,38.83
2023-04-29T01:54:22.713Z,42.00
2023-04-29T01:56:49.596Z,40.55
2023-04-29T01:59:16.609Z,44.90
2023-04-29T02:01:43.800Z,40.45
2023-04-29T02:04:10.621Z,41.60
2023-04-29T02:06:38.404Z,40.80
2023-04-29T02:09:05.425Z,40.67
2023-04-29T02:11:32.146Z,40.47
2023-04-29T02:13:58.974Z,43.20
2023-04-29T02:16:25.586Z,45.55
2023-04-29T02:18:52.271Z,45.75
2023-04-29T02:21:19.017Z,43.00
2023-04-29T02:23:45.913Z,42.40
2023-04-29T02:26:14.040Z,48.17
2023-04-29T02:28:40.898Z,45.35
2023-04-29T02:31:07.615Z,46.83
2023-04-29T02:33:34.479Z,49.37
2023-04-29T02:36:01.206Z,45.87
2023-04-29T02:38:27.776Z,46.42
2023-04-29T02:40:54.361Z,46.78
2023-04-29T02:43:20.941Z,50.27
2023-04-29T02:45:47.493Z,49.57
2023-04-29T02:48:14.174Z,46.20
2023-04-29T02:50:40.725Z,45.03
2023-04-29T02:53:07.362Z,46.07
2023-04-29T02:55:34.207Z,46.03
2023-04-29T02:58:01.343Z,44.13
2023-04-29T03:00:27.879Z,42.73
2023-04-29T03:02:54.465Z,42.72
2023-04-29T03:05:21.070Z,42.95
2023-04-29T03:07:47.581Z,42.10
2023-04-29T03:10:14.033Z,40.13
2023-04-29T03:12:40.959Z,42.00
2023-04-29T03:15:07.995Z,43.15
2023-04-29T03:17:34.893Z,44.40
2023-04-29T03:20:01.706Z,42.47
2023-04-29T03:22:28.202Z,43.25
2023-04-29T03:24:54.717Z,43.75
2023-04-29T03:27:21.176Z,41.88
2023-04-29T03:29:47.622Z,41.60
2023-04-29T03:32:14.071Z,36.60
2023-04-29T03:34:40.747Z,36.73
2023-04-29T03:37:07.229Z,37.30
2023-04-29T03:39:33.735Z,37.22
2023-04-29T03:42:00.196Z,40.28
2023-04-29T03:44:27.257Z,38.80
2023-04-29T03:46:53.898Z,37.50
2023-04-29T03:49:20.428Z,38.67
2023-04-29T03:51:47.184Z,40.27
2023-04-29T03:54:13.776Z,36.30
2023-04-29T03:56:41.048Z,31.92
2023-04-29T03:59:07.647Z,33.40
2023-04-29T04:01:34.161Z,30.27
2023-04-29T04:04:00.863Z,30.65
2023-04-29T04:06:27.465Z,33.90
2023-04-29T04:08:54.655Z,32.77
2023-04-29T04:11:21.127Z,33.25
2023-04-29T04:13:47.580Z,30.95
2023-04-29T04:16:14.063Z,34.05
2023-04-29T04:18:40.694Z,32.65
2023-04-29T04:21:08.730Z,29.55
2023-04-29T04:23:35.344Z,29.52
2023-04-29T04:26:01.981Z,28.13
2023-04-29T04:28:28.484Z,27.50
2023-04-29T04:30:55.005Z,24.95
2023-04-29T04:33:21.484Z,22.90
2023-04-29T04:35:48.112Z,22.40
2023-04-29T04:38:15.209Z,23.95
2023-04-29T04:40:42.309Z,22.10
2023-04-29T04:43:08.734Z,21.85
2023-04-29T04:45:36.610Z,20.50
2023-04-29T04:48:03.510Z,20.83
2023-04-29T04:50:30.415Z,19.80
2023-04-29T04:52:57.163Z,21.27
2023-04-29T04:55:23.977Z,22.27
2023-04-29T04:57:50.989Z,22.52
2023-04-29T05:00:17.951Z,22.48
2023-04-29T05:02:44.472Z,22.52
2023-04-29T05:05:11.449Z,25.38
2023-04-29T05:07:37.894Z,24.52
2023-04-29T05:10:06.491Z,24.40
2023-04-29T05:12:35.224Z,26.05
2023-04-29T05:15:02.361Z,24.75
2023-04-29T05:17:28.974Z,23.33
2023-04-29T05:19:55.720Z,28.75
2023-04-29T05:22:22.338Z,26.67
2023-04-29T05:24:49.065Z,29.10
2023-04-29T05:27:15.686Z,27.92
2023-04-29T05:29:42.249Z,29.17
2023-04-29T05:32:08.818Z,29.60
2023-04-29T05:34:35.535Z,30.65
2023-04-29T05:37:02.230Z,30.27
2023-04-29T05:39:28.721Z,30.23
2023-04-29T05:41:55.395Z,30.08
2023-04-29T05:44:21.874Z,27.55
2023-04-29T05:46:48.827Z,28.50
2023-04-29T05:49:15.989Z,25.52
2023-04-29T05:51:42.973Z,26.88
2023-04-29T05:54:09.485Z,27.52
2023-04-29T05:56:36.049Z,28.38
2023-04-29T05:59:02.526Z,26.65
2023-04-29T06:01:29.458Z,26.17
2023-04-29T06:03:56.700Z,23.92
2023-04-29T06:06:23.413Z,22.13
2023-04-29T06:08:49.972Z,21.95
2023-04-29T06:11:17.046Z,21.48
2023-04-29T06:13:43.664Z,23.05
2023-04-29T06:16:11.793Z,22.15
2023-04-29T06:18:38.546Z,22.75
2023-04-29T06:21:05.484Z,22.35
2023-04-29T06:23:32.822Z,23.98
2023-04-29T06:25:59.306Z,33.30
2023-04-29T06:28:25.893Z,26.63
2023-04-29T06:30:52.329Z,23.77
2023-04-29T06:33:18.825Z,24.45
2023-04-29T06:35:45.403Z,22.15
2023-04-29T06:38:12.090Z,19.92
2023-04-29T06:40:38.538Z,17.75
2023-04-29T06:43:05.453Z,19.45
2023-04-29T06:45:32.694Z,18.80
2023-04-29T06:47:59.381Z,18.40
2023-04-29T06:50:26.329Z,18.63
2023-04-29T06:52:53.127Z,20.20
2023-04-29T06:55:19.657Z,21.50
2023-04-29T06:57:46.409Z,20.33
2023-04-29T07:00:13.311Z,20.83
2023-04-29T07:02:39.937Z,18.85
2023-04-29T07:05:07.558Z,22.33
2023-04-29T07:07:34.317Z,19.58
2023-04-29T07:10:00.886Z,20.50
2023-04-29T07:12:27.629Z,18.65
2023-04-29T07:14:54.235Z,19.23
2023-04-29T07:17:20.893Z,19.83
2023-04-29T07:19:47.723Z,21.58
2023-04-29T07:22:14.216Z,20.50
2023-04-29T07:24:41.528Z,21.67
2023-04-29T07:27:08.049Z,23.33
2023-04-29T07:29:35.137Z,24.20
2023-04-29T07:32:02.044Z,24.85
2023-04-29T07:34:28.483Z,24.30
2023-04-29T07:36:56.253Z,23.80
2023-04-29T07:39:22.884Z,24.58
2023-04-29T07:41:49.408Z,23.33
2023-04-29T07:44:16.313Z,21.80
2023-04-29T07:46:42.818Z,19.98
2023-04-29T07:49:10.355Z,20.10
2023-04-29T07:51:37.146Z,19.50
2023-04-29T07:54:04.666Z,20.85
2023-04-29T07:56:31.280Z,20.60
2023-04-29T07:58:59.901Z,20.30
2023-04-29T08:01:26.864Z,20.23
2023-04-29T08:03:53.504Z,20.70
2023-04-29T08:06:22.204Z,19.52
2023-04-29T08:08:49.032Z,21.20
2023-04-29T08:11:19.771Z,21.77
2023-04-29T08:13:46.767Z,17.27
2023-04-29T08:16:13.844Z,17.10
2023-04-29T08:18:40.598Z,16.13
2023-04-29T08:21:07.484Z,14.35
2023-04-29T08:23:34.204Z,13.43
2023-04-29T08:26:01.194Z,12.82
2023-04-29T08:28:28.078Z,11.90
2023-04-29T08:30:55.572Z,13.00
2023-04-29T08:33:22.314Z,12.63
2023-04-29T08:35:48.939Z,13.13
2023-04-29T08:38:16.849Z,12.40
2023-04-29T08:40:48.960Z,12.52
2023-04-29T08:43:16.151Z,12.38
2023-04-29T08:45:43.423Z,12.40
2023-04-29T08:48:10.446Z,11.88
2023-04-29T08:50:41.736Z,12.05
2023-04-29T08:53:09.376Z,11.98
2023-04-29T08:55:37.710Z,12.07
2023-04-29T08:58:04.729Z,12.77
2023-04-29T09:00:32.626Z,11.82
2023-04-29T09:03:01.024Z,12.38
2023-04-29T09:05:28.284Z,12.35
2023-04-29T09:07:59.611Z,12.00
2023-04-29T09:10:26.465Z,12.10
2023-04-29T09:12:56.489Z,11.45
2023-04-29T09:15:23.007Z,11.30
2023-04-29T09:17:50.118Z,11.40
2023-04-29T09:20:22.533Z,11.27
2023-04-29T09:23:07.270Z,11.27
2023-04-29T09:25:34.455Z,11.60
2023-04-29T09:28:14.943Z,11.70
2023-04-29T09:30:47.673Z,12.50
2023-04-29T09:33:15.333Z,12.20
2023-04-29T09:35:42.021Z,12.07
2023-04-29T09:38:13.275Z,12.38
2023-04-29T09:40:57.261Z,11.55
2023-04-29T09:43:25.311Z,11.35
2023-04-29T09:45:52.213Z,11.63
2023-04-29T09:48:18.889Z,11.60
2023-04-29T09:50:59.697Z,11.50
2023-04-29T09:53:31.699Z,12.00
2023-04-29T09:56:01.144Z,11.07
2023-04-29T09:58:37.380Z,11.30
2023-04-29T10:01:04.791Z,10.70
2023-04-29T10:03:37.188Z,11.05
2023-04-29T10:06:05.631Z,10.55
2023-04-29T10:08:33.144Z,11.68
2023-04-29T10:11:03.928Z,11.13
2023-04-29T10:13:31.432Z,11.25
2023-04-29T10:16:02.050Z,11.98
2023-04-29T10:18:41.573Z,12.18
2023-04-29T10:21:11.514Z,12.98
2023-04-29T10:23:38.105Z,13.82
2023-04-29T10:26:06.211Z,14.00
2023-04-29T10:28:33.061Z,14.13
2023-04-29T10:31:05.027Z,14.80
2023-04-29T10:33:35.663Z,14.38
2023-04-29T10:36:03.256Z,14.23
2023-04-29T10:38:34.963Z,14.68
2023-04-29T10:41:04.357Z,14.82
2023-04-29T10:43:31.963Z,15.35
2023-04-29T10:46:21.967Z,14.48
2023-04-29T10:48:55.367Z,14.00
2023-04-29T10:51:31.562Z,13.77
2023-04-29T10:53:59.188Z,15.40
2023-04-29T10:56:37.773Z,15.18
2023-04-29T10:59:05.278Z,15.50
2023-04-29T11:01:43.000Z,15.48
2023-04-29T11:04:10.963Z,14.95
2023-04-29T11:06:37.753Z,15.15
2023-04-29T11:09:09.024Z,14.00
2023-04-29T11:11:49.242Z,15.15
2023-04-29T11:14:21.133Z,13.52
2023-04-29T11:16:49.769Z,12.98
2023-04-29T11:19:17.490Z,13.55
2023-04-29T11:21:45.922Z,12.98
2023-04-29T11:24:15.513Z,13.35
2023-04-29T11:26:43.243Z,12.93
2023-04-29T11:29:10.820Z,11.90
2023-04-29T11:31:39.349Z,11.82
2023-04-29T11:34:07.337Z,10.45
2023-04-29T11:36:34.931Z,10.32
2023-04-29T11:39:03.546Z,8.98
2023-04-29T11:41:31.528Z,8.30
2023-04-29T11:43:59.953Z,8.45
2023-04-29T11:46:30.970Z,7.07
2023-04-29T11:48:57.726Z,6.60
2023-04-29T11:51:24.347Z,6.28
2023-04-29T11:53:51.537Z,5.93
2023-04-29T11:56:22.955Z,6.15
2023-04-29T11:58:49.753Z,6.45
2023-04-29T12:01:16.267Z,6.25
2023-04-29T12:03:44.017Z,6.40
2023-04-29T12:06:10.932Z,7.03
2023-04-29T12:08:37.408Z,6.97
2023-04-29T12:11:06.939Z,7.07
2023-04-29T12:13:36.125Z,8.10
2023-04-29T12:16:03.575Z,8.73
2023-04-29T12:18:31.086Z,9.45
2023-04-29T12:20:58.283Z,9.30
2023-04-29T12:23:28.675Z,10.43
2023-04-29T12:25:58.989Z,12.20
2023-04-29T12:28:25.820Z,10.18
2023-04-29T12:30:56.760Z,11.40
2023-04-29T12:33:25.051Z,10.90
2023-04-29T12:35:52.713Z,11.48
2023-04-29T12:38:27.834Z,11.70
2023-04-29T12:40:55.900Z,11.45
2023-04-29T12:43:29.495Z,10.85
2023-04-29T12:46:03.535Z,9.88
2023-04-29T12:48:34.403Z,10.15
2023-04-29T12:51:04.641Z,10.60
2023-04-29T12:53:31.509Z,10.60
2023-04-29T12:55:58.303Z,10.27
2023-04-29T12:58:25.114Z,10.38
2023-04-29T13:00:51.842Z,11.20
2023-04-29T13:03:21.338Z,11.18
2023-04-29T13:05:51.406Z,11.48
2023-04-29T13:08:18.237Z,12.57
2023-04-29T13:10:44.762Z,12.00
2023-04-29T13:13:11.856Z,12.20
2023-04-29T13:15:41.336Z,14.40
2023-04-29T13:18:08.043Z,14.73
2023-04-29T13:20:41.063Z,15.52
2023-04-29T13:23:09.156Z,15.88
2023-04-29T13:25:35.934Z,16.90
2023-04-29T13:28:02.840Z,17.00
2023-04-29T13:30:29.384Z,18.10
2023-04-29T13:33:01.246Z,18.45
2023-04-29T13:35:36.093Z,19.15
2023-04-29T13:38:02.862Z,18.50
2023-04-29T13:40:29.500Z,18.13
2023-04-29T13:43:04.301Z,18.08
2023-04-29T13:45:38.832Z,18.10
2023-04-29T13:48:20.181Z,18.38
2023-04-29T13:53:50.055Z,19.75
2023-04-29T13:59:11.746Z,20.63
2023-04-29T14:02:13.346Z,20.65
2023-04-29T14:04:11.370Z,20.33
2023-04-29T14:06:38.148Z,19.92
2023-04-29T14:09:04.680Z,20.77
2023-04-29T14:11:31.255Z,20.08
2023-04-29T14:13:57.701Z,20.52
2023-04-29T14:16:24.217Z,19.35
2023-04-29T14:18:50.716Z,20.23
2023-04-29T14:21:17.275Z,19.45
2023-04-29T14:23:43.797Z,20.80
2023-04-29T14:26:27.229Z,19.77
2023-04-29T14:28:58.624Z,19.40
2023-04-29T14:31:25.677Z,19.85
2023-04-29T14:33:52.303Z,19.85
2023-04-29T14:36:19.113Z,20.88
2023-04-29T14:38:46.496Z,19.42
2023-04-29T14:41:13.341Z,20.20
2023-04-29T14:43:41.244Z,20.80
2023-04-29T14:46:08.218Z,20.33
2023-04-29T14:48:35.403Z,19.92
2023-04-29T14:51:01.970Z,19.98
2023-04-29T14:53:28.577Z,19.35
2023-04-29T14:55:55.122Z,20.35
2023-04-29T14:58:21.677Z,19.83
2023-04-29T15:00:49.359Z,19.48
2023-04-29T15:03:22.066Z,19.00
2023-04-29T15:05:51.092Z,19.20
2023-04-29T15:08:18.466Z,19.15
2023-04-29T15:10:48.384Z,19.02
2023-04-29T15:13:14.963Z,19.70
2023-04-29T15:15:41.899Z,20.33
2023-04-29T15:18:08.959Z,20.08
2023-04-29T15:20:36.689Z,21.50
2023-04-29T15:23:04.103Z,21.23
2023-04-29T15:25:31.282Z,21.13
2023-04-29T15:27:59.095Z,20.73
2023-04-29T15:30:27.147Z,19.73
2023-04-29T15:32:55.262Z,20.65
2023-04-29T15:35:22.061Z,20.67
2023-04-29T15:37:48.678Z,20.17
2023-04-29T15:40:16.493Z,21.95
2023-04-29T15:42:43.590Z,20.83
2023-04-29T15:45:10.806Z,20.58
2023-04-29T15:47:37.238Z,20.67
2023-04-29T15:50:03.923Z,24.35
2023-04-29T15:52:30.489Z,21.17
2023-04-29T15:54:58.510Z,21.08
2023-04-29T15:57:25.940Z,21.77
2023-04-29T15:59:52.737Z,20.85
2023-04-29T16:02:20.407Z,23.25
2023-04-29T16:04:46.966Z,23.83
2023-04-29T16:07:13.525Z,24.85
2023-04-29T16:09:40.117Z,22.23
2023-04-29T16:12:06.507Z,20.70
2023-04-29T16:14:32.938Z,19.88
2023-04-29T16:17:00.479Z,20.95
2023-04-29T16:19:27.079Z,21.85
2023-04-29T16:21:53.525Z,21.35
2023-04-29T16:24:19.916Z,20.77
2023-04-29T16:26:48.058Z,20.80
2023-04-29T16:29:15.026Z,21.33
2023-04-29T16:31:41.949Z,21.58
2023-04-29T16:34:08.533Z,21.65
2023-04-29T16:36:35.350Z,22.08
2023-04-29T16:39:04.088Z,22.88
2023-04-29T16:41:31.399Z,21.58
2023-04-29T16:43:58.366Z,21.48
2023-04-29T16:46:24.979Z,21.17
2023-04-29T16:48:56.501Z,21.00
2023-04-29T16:51:25.496Z,20.58
2023-04-29T16:53:55.020Z,22.90
2023-04-29T16:56:24.464Z,21.33
2023-04-29T16:58:51.097Z,20.33
2023-04-29T17:11:19.909Z,18.70
2023-04-29T17:13:47.014Z,19.05
2023-04-29T17:16:16.825Z,18.35
2023-04-29T17:18:44.017Z,19.63
2023-04-29T17:21:11.156Z,21.60
2023-04-29T17:23:38.319Z,18.95
2023-04-29T17:26:07.471Z,19.15
2023-04-29T17:28:34.289Z,19.17
2023-04-29T17:31:02.390Z,18.67
2023-04-29T17:33:34.279Z,19.80
2023-04-29T17:36:04.606Z,19.75
2023-04-29T17:38:35.169Z,26.95
2023-04-29T17:41:03.568Z,23.38
2023-04-29T17:43:33.208Z,21.48
2023-04-29T17:46:00.088Z,20.17
2023-04-29T17:48:30.118Z,19.65
2023-04-29T17:50:56.919Z,19.55
2023-04-29T17:53:23.552Z,20.17
2023-04-29T17:55:50.480Z,22.88
2023-04-29T17:58:17.493Z,21.90
2023-04-29T18:00:45.744Z,20.48
2023-04-29T18:03:12.422Z,19.85
2023-04-29T18:05:39.062Z,19.42
2023-04-29T18:08:05.666Z,22.00
2023-04-29T18:10:32.308Z,19.30
2023-04-29T18:12:58.826Z,19.55
2023-04-29T18:15:25.684Z,19.48
2023-04-29T18:17:54.269Z,19.65
2023-04-29T18:20:22.419Z,19.55
2023-04-29T18:22:50.482Z,21.10
2023-04-29T18:25:17.586Z,26.42
2023-04-29T18:27:44.484Z,27.15
2023-04-29T18:30:11.481Z,23.27
2023-04-29T18:32:38.711Z,22.98
2023-04-29T18:35:06.097Z,23.13
2023-04-29T18:37:33.075Z,21.87
2023-04-29T18:39:59.672Z,20.40
2023-04-29T18:42:26.683Z,20.17
2023-04-29T18:44:53.243Z,18.98
2023-04-29T18:47:19.987Z,18.83
2023-04-29T18:49:46.736Z,19.90
2023-04-29T18:52:13.420Z,20.75
2023-04-29T18:54:40.020Z,20.10
2023-04-29T18:57:06.870Z,23.33
2023-04-29T18:59:35.929Z,21.17
2023-04-29T19:02:02.735Z,20.50
2023-04-29T19:04:30.742Z,19.95
2023-04-29T19:06:57.897Z,21.25
2023-04-29T19:09:24.457Z,21.05
2023-04-29T19:11:51.023Z,21.20
2023-04-29T19:14:17.988Z,20.15
2023-04-29T19:16:44.550Z,20.70
2023-04-29T19:19:12.120Z,21.27
2023-04-29T19:21:38.856Z,21.95
2023-04-29T19:24:05.808Z,22.65
2023-04-29T19:26:35.037Z,22.58
2023-04-29T19:29:03.666Z,21.48
2023-04-29T19:31:30.546Z,20.90
2023-04-29T19:33:57.220Z,20.75
2023-04-29T19:36:23.765Z,20.38
2023-04-29T19:38:50.466Z,20.98
2023-04-29T19:41:17.573Z,21.13
2023-04-29T19:43:44.465Z,20.17
2023-04-29T19:46:14.692Z,20.77
2023-04-29T19:48:41.729Z,20.30
2023-04-29T19:51:08.987Z,20.37
2023-04-29T19:53:36.421Z,19.30
2023-04-29T19:56:03.163Z,23.60
2023-04-29T19:58:30.349Z,20.90
2023-04-29T20:00:57.071Z,20.90
2023-04-29T20:03:23.938Z,23.00
2023-04-29T20:05:50.663Z,24.47
2023-04-29T20:08:17.164Z,25.10
2023-04-29T20:10:43.613Z,25.02
2023-04-29T20:13:10.038Z,22.20
2023-04-29T20:15:37.527Z,22.50
2023-04-29T20:18:04.366Z,22.83
2023-04-29T20:20:30.973Z,23.00
2023-04-29T20:23:00.252Z,22.40
2023-04-29T20:25:27.507Z,21.65
2023-04-29T20:27:54.554Z,20.77
2023-04-29T20:30:21.596Z,21.50
2023-04-29T20:32:48.380Z,20.77
2023-04-29T20:35:15.837Z,22.15
2023-04-29T20:37:42.382Z,21.93
2023-04-29T20:40:09.816Z,21.88
2023-04-29T20:42:36.546Z,23.37
2023-04-29T20:45:03.445Z,20.03
2023-04-29T20:47:30.071Z,22.15
2023-04-29T20:49:57.078Z,22.08
2023-04-29T20:52:24.221Z,21.17
2023-04-29T20:54:52.698Z,20.98
2023-04-29T20:57:19.277Z,21.42
2023-04-29T20:59:45.850Z,21.27
2023-04-29T21:02:12.428Z,20.70
2023-04-29T21:04:39.069Z,20.70
2023-04-29T21:07:08.292Z,20.83
2023-04-29T21:09:35.791Z,20.73
2023-04-29T21:12:05.337Z,20.63
2023-04-29T21:14:35.435Z,20.40
2023-04-29T21:17:01.936Z,21.00
2023-04-29T21:19:28.483Z,20.67
2023-04-29T21:21:54.999Z,20.58
2023-04-29T21:24:21.609Z,21.15
2023-04-29T21:26:50.333Z,20.00
2023-04-29T21:29:16.805Z,20.97
2023-04-29T21:31:43.743Z,20.37
2023-04-29T21:34:10.293Z,19.92
2023-04-29T21:36:37.053Z,20.23
2023-04-29T21:39:03.727Z,21.27
2023-04-29T21:41:32.128Z,20.25
2023-04-29T21:43:59.513Z,20.53
2023-04-29T21:46:27.804Z,22.08
2023-04-29T21:48:56.310Z,21.13
2023-04-29T21:51:23.068Z,22.25
2023-04-29T21:53:50.754Z,21.27
2023-04-29T21:56:19.310Z,20.77
2023-04-29T21:58:46.190Z,19.57
2023-04-29T22:01:26.693Z,20.48
2023-04-29T22:03:55.797Z,20.23
2023-04-29T22:06:22.822Z,20.17
2023-04-29T22:08:49.722Z,21.05
2023-04-29T22:11:21.734Z,20.70
2023-04-29T22:13:48.717Z,20.77
2023-04-29T22:16:15.694Z,20.13
2023-04-29T22:18:42.403Z,21.57
2023-04-29T22:21:08.963Z,21.17
2023-04-29T22:23:35.468Z,20.30
2023-04-29T22:26:01.942Z,20.75
2023-04-29T22:28:28.497Z,20.70
2023-04-29T22:30:55.053Z,19.63
2023-04-29T22:33:22.479Z,20.90
2023-04-29T22:35:48.980Z,20.33
2023-04-29T22:38:15.599Z,21.30
2023-04-29T22:40:42.148Z,20.20
2023-04-29T22:43:08.655Z,21.30
2023-04-29T22:45:35.399Z,19.80
2023-04-29T22:48:02.146Z,18.90
2023-04-29T22:50:28.712Z,19.70
2023-04-29T22:52:55.178Z,20.20
2023-04-29T22:55:21.717Z,19.27
2023-04-29T22:57:50.892Z,19.37
2023-04-29T23:00:17.466Z,19.70
2023-04-29T23:02:44.034Z,18.80
2023-04-29T23:05:10.525Z,19.17
2023-04-29T23:07:37.100Z,19.30
2023-04-29T23:10:03.843Z,20.42
2023-04-29T23:12:30.576Z,20.03
2023-04-29T23:14:57.490Z,19.13
2023-04-29T23:17:24.768Z,19.80
2023-04-29T23:19:51.491Z,19.77
2023-04-29T23:22:18.057Z,21.00
2023-04-29T23:24:45.299Z,20.43
2023-04-29T23:27:12.181Z,20.58
2023-04-29T23:29:41.644Z,21.27
2023-04-29T23:32:08.679Z,20.48
2023-04-29T23:34:35.608Z,19.80
2023-04-29T23:37:02.490Z,19.63
2023-04-29T23:39:29.011Z,20.48
2023-04-29T23:41:56.446Z,20.07
2023-04-29T23:44:25.340Z,20.63
2023-04-29T23:46:52.064Z,21.03
2023-04-29T23:49:19.336Z,20.47
2023-04-29T23:51:45.830Z,21.17
2023-04-29T23:54:12.335Z,19.48
2023-04-29T23:56:38.906Z,19.42
2023-04-29T23:59:05.515Z,20.52
